sensor_id;sensor_type;location;lat;lon;timestamp;P1;durP1;ratioP1;P2;durP2;ratioP2
11004;SDS011;5555;59.622;16.556;2024-02-23T00:02:23;22.07;;;18.23;;
11004;SDS011;5555;59.622;16.556;2024-02-23T00:04:49;20.93;;;17.97;;
11004;SDS011;5555;59.622;16.556;2024-02-23T00:07:14;21.00;;;17.20;;
11004;SDS011;5555;59.622;16.556;2024-02-23T00:09:40;22.23;;;17.83;;
11004;SDS011;5555;59.622;16.556;2024-02-23T00:12:06;22.30;;;18.97;;
11004;SDS011;5555;59.622;16.556;2024-02-23T00:14:33;21.60;;;17.53;;
11004;SDS011;5555;59.622;16.556;2024-02-23T00:17:01;21.93;;;18.13;;
11004;SDS011;5555;59.622;16.556;2024-02-23T00:19:30;19.37;;;16.73;;
11004;SDS011;5555;59.622;16.556;2024-02-23T00:21:56;20.70;;;17.10;;
11004;SDS011;5555;59.622;16.556;2024-02-23T00:24:24;23.70;;;18.50;;
11004;SDS011;5555;59.622;16.556;2024-02-23T00:26:50;20.50;;;17.40;;
11004;SDS011;5555;59.622;16.556;2024-02-23T00:29:16;20.20;;;18.00;;
11004;SDS011;5555;59.622;16.556;2024-02-23T00:31:42;21.63;;;17.50;;
11004;SDS011;5555;59.622;16.556;2024-02-23T00:34:10;22.53;;;18.93;;
11004;SDS011;5555;59.622;16.556;2024-02-23T00:36:41;24.17;;;19.17;;
11004;SDS011;5555;59.622;16.556;2024-02-23T00:39:07;24.70;;;19.13;;
11004;SDS011;5555;59.622;16.556;2024-02-23T00:41:34;21.27;;;18.57;;
11004;SDS011;5555;59.622;16.556;2024-02-23T00:44:00;22.50;;;17.80;;
11004;SDS011;5555;59.622;16.556;2024-02-23T00:46:26;21.97;;;18.67;;
11004;SDS011;5555;59.622;16.556;2024-02-23T00:48:51;23.67;;;19.13;;
11004;SDS011;5555;59.622;16.556;2024-02-23T00:51:17;23.33;;;18.83;;
11004;SDS011;5555;59.622;16.556;2024-02-23T00:53:43;23.73;;;19.33;;
11004;SDS011;5555;59.622;16.556;2024-02-23T00:56:08;21.40;;;18.33;;
11004;SDS011;5555;59.622;16.556;2024-02-23T00:58:34;21.17;;;17.50;;
11004;SDS011;5555;59.622;16.556;2024-02-23T01:01:00;19.93;;;17.73;;
11004;SDS011;5555;59.622;16.556;2024-02-23T01:03:25;23.53;;;18.37;;
11004;SDS011;5555;59.622;16.556;2024-02-23T01:05:51;21.17;;;18.17;;
11004;SDS011;5555;59.622;16.556;2024-02-23T01:08:17;21.77;;;19.47;;
11004;SDS011;5555;59.622;16.556;2024-02-23T01:10:43;23.27;;;18.63;;
11004;SDS011;5555;59.622;16.556;2024-02-23T01:13:08;25.30;;;20.07;;
11004;SDS011;5555;59.622;16.556;2024-02-23T01:15:34;20.73;;;18.30;;
11004;SDS011;5555;59.622;16.556;2024-02-23T01:18:00;23.70;;;19.97;;
11004;SDS011;5555;59.622;16.556;2024-02-23T01:20:26;24.33;;;20.67;;
11004;SDS011;5555;59.622;16.556;2024-02-23T01:22:51;24.40;;;19.33;;
11004;SDS011;5555;59.622;16.556;2024-02-23T01:25:17;24.20;;;19.23;;
11004;SDS011;5555;59.622;16.556;2024-02-23T01:27:43;26.20;;;21.80;;
11004;SDS011;5555;59.622;16.556;2024-02-23T01:30:11;25.00;;;20.20;;
11004;SDS011;5555;59.622;16.556;2024-02-23T01:32:37;26.07;;;20.77;;
11004;SDS011;5555;59.622;16.556;2024-02-23T01:35:04;28.00;;;22.50;;
11004;SDS011;5555;59.622;16.556;2024-02-23T01:37:30;28.83;;;22.17;;
11004;SDS011;5555;59.622;16.556;2024-02-23T01:39:57;25.30;;;20.87;;
11004;SDS011;5555;59.622;16.556;2024-02-23T01:42:24;28.20;;;21.27;;
11004;SDS011;5555;59.622;16.556;2024-02-23T01:44:51;26.63;;;21.70;;
11004;SDS011;5555;59.622;16.556;2024-02-23T01:47:17;27.40;;;20.97;;
11004;SDS011;5555;59.622;16.556;2024-02-23T01:49:43;29.13;;;21.77;;
11004;SDS011;5555;59.622;16.556;2024-02-23T01:52:11;25.63;;;20.77;;
11004;SDS011;5555;59.622;16.556;2024-02-23T01:54:37;25.50;;;20.63;;
11004;SDS011;5555;59.622;16.556;2024-02-23T01:57:03;31.27;;;23.07;;
11004;SDS011;5555;59.622;16.556;2024-02-23T01:59:29;28.50;;;21.63;;
11004;SDS011;5555;59.622;16.556;2024-02-23T02:01:55;29.37;;;23.03;;
11004;SDS011;5555;59.622;16.556;2024-02-23T02:04:21;29.60;;;22.20;;
11004;SDS011;5555;59.622;16.556;2024-02-23T02:06:46;30.20;;;23.13;;
11004;SDS011;5555;59.622;16.556;2024-02-23T02:09:13;28.90;;;22.77;;
11004;SDS011;5555;59.622;16.556;2024-02-23T02:11:48;30.80;;;23.20;;
11004;SDS011;5555;59.622;16.556;2024-02-23T02:14:14;31.93;;;24.23;;
11004;SDS011;5555;59.622;16.556;2024-02-23T02:16:40;30.60;;;22.70;;
11004;SDS011;5555;59.622;16.556;2024-02-23T02:19:06;30.87;;;23.87;;
11004;SDS011;5555;59.622;16.556;2024-02-23T02:21:32;30.67;;;23.20;;
11004;SDS011;5555;59.622;16.556;2024-02-23T02:23:58;32.53;;;23.30;;
11004;SDS011;5555;59.622;16.556;2024-02-23T02:26:24;35.67;;;24.30;;
11004;SDS011;5555;59.622;16.556;2024-02-23T02:28:50;32.70;;;24.80;;
11004;SDS011;5555;59.622;16.556;2024-02-23T02:31:15;32.90;;;24.93;;
11004;SDS011;5555;59.622;16.556;2024-02-23T02:33:41;29.80;;;24.07;;
11004;SDS011;5555;59.622;16.556;2024-02-23T02:36:07;34.33;;;24.90;;
11004;SDS011;5555;59.622;16.556;2024-02-23T02:38:32;34.80;;;24.67;;
11004;SDS011;5555;59.622;16.556;2024-02-23T02:40:58;34.23;;;25.47;;
11004;SDS011;5555;59.622;16.556;2024-02-23T02:43:25;32.77;;;24.67;;
11004;SDS011;5555;59.622;16.556;2024-02-23T02:45:51;34.33;;;25.77;;
11004;SDS011;5555;59.622;16.556;2024-02-23T02:48:17;34.63;;;26.97;;
11004;SDS011;5555;59.622;16.556;2024-02-23T02:50:43;32.97;;;28.10;;
11004;SDS011;5555;59.622;16.556;2024-02-23T02:53:09;35.03;;;29.03;;
11004;SDS011;5555;59.622;16.556;2024-02-23T02:55:35;36.87;;;27.57;;
11004;SDS011;5555;59.622;16.556;2024-02-23T02:58:01;32.70;;;26.90;;
11004;SDS011;5555;59.622;16.556;2024-02-23T03:00:27;35.40;;;26.43;;
11004;SDS011;5555;59.622;16.556;2024-02-23T03:02:53;37.43;;;27.77;;
11004;SDS011;5555;59.622;16.556;2024-02-23T03:05:19;34.73;;;26.03;;
11004;SDS011;5555;59.622;16.556;2024-02-23T03:07:45;35.40;;;26.80;;
11004;SDS011;5555;59.622;16.556;2024-02-23T03:10:10;34.17;;;25.17;;
11004;SDS011;5555;59.622;16.556;2024-02-23T03:12:36;31.10;;;24.73;;
11004;SDS011;5555;59.622;16.556;2024-02-23T03:15:01;36.17;;;26.43;;
11004;SDS011;5555;59.622;16.556;2024-02-23T03:17:28;32.30;;;26.60;;
11004;SDS011;5555;59.622;16.556;2024-02-23T03:19:54;32.53;;;28.03;;
11004;SDS011;5555;59.622;16.556;2024-02-23T03:22:19;35.43;;;28.23;;
11004;SDS011;5555;59.622;16.556;2024-02-23T03:24:45;32.23;;;27.47;;
11004;SDS011;5555;59.622;16.556;2024-02-23T03:27:10;31.10;;;27.67;;
11004;SDS011;5555;59.622;16.556;2024-02-23T03:29:37;30.90;;;27.60;;
11004;SDS011;5555;59.622;16.556;2024-02-23T03:32:03;30.47;;;27.07;;
11004;SDS011;5555;59.622;16.556;2024-02-23T03:34:29;31.97;;;25.73;;
11004;SDS011;5555;59.622;16.556;2024-02-23T03:36:55;30.10;;;26.90;;
11004;SDS011;5555;59.622;16.556;2024-02-23T03:39:20;33.03;;;29.20;;
11004;SDS011;5555;59.622;16.556;2024-02-23T03:41:46;31.77;;;28.40;;
11004;SDS011;5555;59.622;16.556;2024-02-23T03:44:12;30.83;;;27.30;;
11004;SDS011;5555;59.622;16.556;2024-02-23T03:46:37;29.40;;;26.37;;
11004;SDS011;5555;59.622;16.556;2024-02-23T03:49:03;23.53;;;20.87;;
11004;SDS011;5555;59.622;16.556;2024-02-23T03:51:29;28.07;;;25.13;;
11004;SDS011;5555;59.622;16.556;2024-02-23T03:53:54;26.50;;;23.80;;
11004;SDS011;5555;59.622;16.556;2024-02-23T03:56:20;25.50;;;22.90;;
11004;SDS011;5555;59.622;16.556;2024-02-23T03:58:45;25.53;;;22.83;;
11004;SDS011;5555;59.622;16.556;2024-02-23T04:01:11;26.40;;;23.90;;
11004;SDS011;5555;59.622;16.556;2024-02-23T04:03:37;27.13;;;24.27;;
11004;SDS011;5555;59.622;16.556;2024-02-23T04:06:02;25.60;;;23.00;;
11004;SDS011;5555;59.622;16.556;2024-02-23T04:08:28;25.93;;;23.30;;
11004;SDS011;5555;59.622;16.556;2024-02-23T04:10:54;23.60;;;21.30;;
11004;SDS011;5555;59.622;16.556;2024-02-23T04:13:19;24.20;;;21.87;;
11004;SDS011;5555;59.622;16.556;2024-02-23T04:15:45;25.50;;;22.90;;
11004;SDS011;5555;59.622;16.556;2024-02-23T04:18:11;23.60;;;21.40;;
11004;SDS011;5555;59.622;16.556;2024-02-23T04:20:36;24.87;;;22.37;;
11004;SDS011;5555;59.622;16.556;2024-02-23T04:23:02;22.87;;;20.60;;
11004;SDS011;5555;59.622;16.556;2024-02-23T04:25:27;23.50;;;21.20;;
11004;SDS011;5555;59.622;16.556;2024-02-23T04:27:53;22.43;;;20.13;;
11004;SDS011;5555;59.622;16.556;2024-02-23T04:30:19;22.50;;;20.40;;
11004;SDS011;5555;59.622;16.556;2024-02-23T04:32:44;21.77;;;19.60;;
11004;SDS011;5555;59.622;16.556;2024-02-23T04:35:10;19.93;;;18.07;;
11004;SDS011;5555;59.622;16.556;2024-02-23T04:37:36;22.07;;;19.97;;
11004;SDS011;5555;59.622;16.556;2024-02-23T04:40:01;21.70;;;19.63;;
11004;SDS011;5555;59.622;16.556;2024-02-23T04:42:30;20.77;;;18.77;;
11004;SDS011;5555;59.622;16.556;2024-02-23T04:44:56;22.27;;;19.97;;
11004;SDS011;5555;59.622;16.556;2024-02-23T04:47:21;22.83;;;20.63;;
11004;SDS011;5555;59.622;16.556;2024-02-23T04:49:47;22.07;;;19.90;;
11004;SDS011;5555;59.622;16.556;2024-02-23T04:52:14;23.87;;;21.53;;
11004;SDS011;5555;59.622;16.556;2024-02-23T04:54:40;24.07;;;21.77;;
11004;SDS011;5555;59.622;16.556;2024-02-23T04:57:05;22.03;;;20.00;;
11004;SDS011;5555;59.622;16.556;2024-02-23T04:59:31;23.30;;;20.83;;
11004;SDS011;5555;59.622;16.556;2024-02-23T05:01:57;23.07;;;20.77;;
11004;SDS011;5555;59.622;16.556;2024-02-23T05:04:23;22.97;;;20.67;;
11004;SDS011;5555;59.622;16.556;2024-02-23T05:06:49;23.73;;;21.43;;
11004;SDS011;5555;59.622;16.556;2024-02-23T05:09:14;22.23;;;20.23;;
11004;SDS011;5555;59.622;16.556;2024-02-23T05:11:40;22.47;;;20.37;;
11004;SDS011;5555;59.622;16.556;2024-02-23T05:14:06;23.60;;;21.37;;
11004;SDS011;5555;59.622;16.556;2024-02-23T05:16:31;20.93;;;18.83;;
11004;SDS011;5555;59.622;16.556;2024-02-23T05:18:57;21.37;;;19.43;;
11004;SDS011;5555;59.622;16.556;2024-02-23T05:21:22;21.00;;;19.00;;
11004;SDS011;5555;59.622;16.556;2024-02-23T05:23:48;20.00;;;18.10;;
11004;SDS011;5555;59.622;16.556;2024-02-23T05:26:14;20.10;;;18.30;;
11004;SDS011;5555;59.622;16.556;2024-02-23T05:28:40;19.03;;;17.17;;
11004;SDS011;5555;59.622;16.556;2024-02-23T05:31:06;19.20;;;17.33;;
11004;SDS011;5555;59.622;16.556;2024-02-23T05:33:32;18.93;;;17.20;;
11004;SDS011;5555;59.622;16.556;2024-02-23T05:35:57;17.67;;;16.07;;
11004;SDS011;5555;59.622;16.556;2024-02-23T05:38:23;16.50;;;15.00;;
11004;SDS011;5555;59.622;16.556;2024-02-23T05:40:49;15.60;;;14.20;;
11004;SDS011;5555;59.622;16.556;2024-02-23T05:43:14;16.30;;;14.90;;
11004;SDS011;5555;59.622;16.556;2024-02-23T05:45:40;15.77;;;14.37;;
11004;SDS011;5555;59.622;16.556;2024-02-23T05:48:06;16.17;;;14.77;;
11004;SDS011;5555;59.622;16.556;2024-02-23T05:50:32;17.13;;;15.53;;
11004;SDS011;5555;59.622;16.556;2024-02-23T05:52:57;16.90;;;15.50;;
11004;SDS011;5555;59.622;16.556;2024-02-23T05:55:23;16.83;;;15.23;;
11004;SDS011;5555;59.622;16.556;2024-02-23T05:57:49;16.00;;;14.40;;
11004;SDS011;5555;59.622;16.556;2024-02-23T06:00:16;16.20;;;14.70;;
11004;SDS011;5555;59.622;16.556;2024-02-23T06:02:44;17.47;;;15.83;;
11004;SDS011;5555;59.622;16.556;2024-02-23T06:05:10;18.70;;;16.93;;
11004;SDS011;5555;59.622;16.556;2024-02-23T06:07:36;18.73;;;16.83;;
11004;SDS011;5555;59.622;16.556;2024-02-23T06:10:02;17.13;;;15.53;;
11004;SDS011;5555;59.622;16.556;2024-02-23T06:12:28;17.87;;;16.17;;
11004;SDS011;5555;59.622;16.556;2024-02-23T06:14:54;16.50;;;14.90;;
11004;SDS011;5555;59.622;16.556;2024-02-23T06:17:21;16.93;;;15.33;;
11004;SDS011;5555;59.622;16.556;2024-02-23T06:19:48;16.13;;;14.67;;
11004;SDS011;5555;59.622;16.556;2024-02-23T06:22:13;15.13;;;13.73;;
11004;SDS011;5555;59.622;16.556;2024-02-23T06:24:42;15.83;;;14.43;;
11004;SDS011;5555;59.622;16.556;2024-02-23T06:27:07;14.37;;;12.97;;
11004;SDS011;5555;59.622;16.556;2024-02-23T06:29:33;14.17;;;12.80;;
11004;SDS011;5555;59.622;16.556;2024-02-23T06:31:59;13.97;;;12.77;;
11004;SDS011;5555;59.622;16.556;2024-02-23T06:34:27;13.60;;;12.40;;
11004;SDS011;5555;59.622;16.556;2024-02-23T06:36:53;13.20;;;11.90;;
11004;SDS011;5555;59.622;16.556;2024-02-23T06:39:19;12.77;;;11.63;;
11004;SDS011;5555;59.622;16.556;2024-02-23T06:41:45;12.00;;;10.90;;
11004;SDS011;5555;59.622;16.556;2024-02-23T06:44:10;9.90;;;8.90;;
11004;SDS011;5555;59.622;16.556;2024-02-23T06:46:36;10.60;;;9.50;;
11004;SDS011;5555;59.622;16.556;2024-02-23T06:49:02;9.90;;;9.07;;
11004;SDS011;5555;59.622;16.556;2024-02-23T06:51:29;10.23;;;9.33;;
11004;SDS011;5555;59.622;16.556;2024-02-23T06:53:56;9.50;;;8.70;;
11004;SDS011;5555;59.622;16.556;2024-02-23T06:56:22;9.17;;;8.47;;
11004;SDS011;5555;59.622;16.556;2024-02-23T06:58:47;8.40;;;7.70;;
11004;SDS011;5555;59.622;16.556;2024-02-23T07:01:13;5.97;;;5.43;;
11004;SDS011;5555;59.622;16.556;2024-02-23T07:03:39;7.93;;;7.23;;
11004;SDS011;5555;59.622;16.556;2024-02-23T07:06:07;7.23;;;6.60;;
11004;SDS011;5555;59.622;16.556;2024-02-23T07:08:35;7.73;;;7.10;;
11004;SDS011;5555;59.622;16.556;2024-02-23T07:11:00;6.97;;;6.47;;
11004;SDS011;5555;59.622;16.556;2024-02-23T07:13:26;6.70;;;6.10;;
11004;SDS011;5555;59.622;16.556;2024-02-23T07:15:52;6.80;;;6.20;;
11004;SDS011;5555;59.622;16.556;2024-02-23T07:18:17;7.10;;;6.47;;
11004;SDS011;5555;59.622;16.556;2024-02-23T07:20:43;7.73;;;7.00;;
11004;SDS011;5555;59.622;16.556;2024-02-23T07:23:08;6.80;;;6.30;;
11004;SDS011;5555;59.622;16.556;2024-02-23T07:25:35;6.80;;;6.30;;
11004;SDS011;5555;59.622;16.556;2024-02-23T07:28:00;6.97;;;6.43;;
11004;SDS011;5555;59.622;16.556;2024-02-23T07:30:26;6.40;;;5.90;;
11004;SDS011;5555;59.622;16.556;2024-02-23T07:32:51;6.37;;;5.77;;
11004;SDS011;5555;59.622;16.556;2024-02-23T07:35:17;6.30;;;5.80;;
11004;SDS011;5555;59.622;16.556;2024-02-23T07:37:42;6.80;;;6.30;;
11004;SDS011;5555;59.622;16.556;2024-02-23T07:40:08;6.47;;;5.97;;
11004;SDS011;5555;59.622;16.556;2024-02-23T07:42:34;7.00;;;6.50;;
11004;SDS011;5555;59.622;16.556;2024-02-23T07:45:01;6.30;;;5.80;;
11004;SDS011;5555;59.622;16.556;2024-02-23T07:47:33;5.90;;;5.50;;
11004;SDS011;5555;59.622;16.556;2024-02-23T07:49:59;6.63;;;6.13;;
11004;SDS011;5555;59.622;16.556;2024-02-23T07:52:25;6.20;;;5.70;;
11004;SDS011;5555;59.622;16.556;2024-02-23T07:54:54;5.63;;;5.23;;
11004;SDS011;5555;59.622;16.556;2024-02-23T07:57:20;6.13;;;5.63;;
11004;SDS011;5555;59.622;16.556;2024-02-23T07:59:45;6.80;;;6.30;;
11004;SDS011;5555;59.622;16.556;2024-02-23T08:02:11;6.67;;;6.17;;
11004;SDS011;5555;59.622;16.556;2024-02-23T08:04:37;6.27;;;5.77;;
11004;SDS011;5555;59.622;16.556;2024-02-23T08:07:03;6.40;;;5.90;;
11004;SDS011;5555;59.622;16.556;2024-02-23T08:09:29;6.20;;;5.70;;
11004;SDS011;5555;59.622;16.556;2024-02-23T08:11:55;6.00;;;5.50;;
11004;SDS011;5555;59.622;16.556;2024-02-23T08:14:20;6.70;;;6.20;;
11004;SDS011;5555;59.622;16.556;2024-02-23T08:16:46;5.73;;;5.33;;
11004;SDS011;5555;59.622;16.556;2024-02-23T08:19:12;6.27;;;5.77;;
11004;SDS011;5555;59.622;16.556;2024-02-23T08:21:37;6.20;;;5.70;;
11004;SDS011;5555;59.622;16.556;2024-02-23T08:24:04;6.10;;;5.50;;
11004;SDS011;5555;59.622;16.556;2024-02-23T08:26:30;5.70;;;5.30;;
11004;SDS011;5555;59.622;16.556;2024-02-23T08:28:55;6.80;;;6.20;;
11004;SDS011;5555;59.622;16.556;2024-02-23T08:31:21;5.53;;;5.03;;
11004;SDS011;5555;59.622;16.556;2024-02-23T08:33:47;6.20;;;5.70;;
11004;SDS011;5555;59.622;16.556;2024-02-23T08:36:12;5.90;;;5.47;;
11004;SDS011;5555;59.622;16.556;2024-02-23T08:38:38;6.03;;;5.43;;
11004;SDS011;5555;59.622;16.556;2024-02-23T08:41:03;5.87;;;5.47;;
11004;SDS011;5555;59.622;16.556;2024-02-23T08:43:29;6.20;;;5.70;;
11004;SDS011;5555;59.622;16.556;2024-02-23T08:45:55;5.97;;;5.17;;
11004;SDS011;5555;59.622;16.556;2024-02-23T08:48:20;5.60;;;5.17;;
11004;SDS011;5555;59.622;16.556;2024-02-23T08:50:46;5.93;;;5.50;;
11004;SDS011;5555;59.622;16.556;2024-02-23T08:53:12;5.30;;;4.90;;
11004;SDS011;5555;59.622;16.556;2024-02-23T08:55:37;4.83;;;4.33;;
11004;SDS011;5555;59.622;16.556;2024-02-23T08:58:03;5.53;;;5.03;;
11004;SDS011;5555;59.622;16.556;2024-02-23T09:00:30;4.93;;;4.53;;
11004;SDS011;5555;59.622;16.556;2024-02-23T09:02:56;5.03;;;4.63;;
11004;SDS011;5555;59.622;16.556;2024-02-23T09:05:22;5.57;;;5.07;;
11004;SDS011;5555;59.622;16.556;2024-02-23T09:07:48;5.90;;;5.40;;
11004;SDS011;5555;59.622;16.556;2024-02-23T09:10:13;5.43;;;5.03;;
11004;SDS011;5555;59.622;16.556;2024-02-23T09:12:39;5.43;;;5.03;;
11004;SDS011;5555;59.622;16.556;2024-02-23T09:15:05;5.50;;;5.00;;
11004;SDS011;5555;59.622;16.556;2024-02-23T09:17:31;5.60;;;5.10;;
11004;SDS011;5555;59.622;16.556;2024-02-23T09:19:56;5.00;;;4.57;;
11004;SDS011;5555;59.622;16.556;2024-02-23T09:22:22;5.23;;;4.83;;
11004;SDS011;5555;59.622;16.556;2024-02-23T09:24:48;4.80;;;4.40;;
11004;SDS011;5555;59.622;16.556;2024-02-23T09:27:14;4.67;;;4.27;;
11004;SDS011;5555;59.622;16.556;2024-02-23T09:29:40;4.87;;;4.37;;
11004;SDS011;5555;59.622;16.556;2024-02-23T09:32:09;4.40;;;4.00;;
11004;SDS011;5555;59.622;16.556;2024-02-23T09:34:34;4.47;;;4.07;;
11004;SDS011;5555;59.622;16.556;2024-02-23T09:37:00;3.90;;;3.43;;
11004;SDS011;5555;59.622;16.556;2024-02-23T09:39:26;3.30;;;3.00;;
11004;SDS011;5555;59.622;16.556;2024-02-23T09:41:55;3.33;;;3.03;;
11004;SDS011;5555;59.622;16.556;2024-02-23T09:44:22;3.33;;;3.00;;
11004;SDS011;5555;59.622;16.556;2024-02-23T09:46:48;2.60;;;2.40;;
11004;SDS011;5555;59.622;16.556;2024-02-23T09:49:15;4.80;;;2.70;;
11004;SDS011;5555;59.622;16.556;2024-02-23T09:51:41;3.00;;;2.70;;
11004;SDS011;5555;59.622;16.556;2024-02-23T09:54:07;2.57;;;2.37;;
11004;SDS011;5555;59.622;16.556;2024-02-23T09:56:33;2.87;;;2.60;;
11004;SDS011;5555;59.622;16.556;2024-02-23T09:59:02;2.70;;;2.50;;
11004;SDS011;5555;59.622;16.556;2024-02-23T10:01:29;5.87;;;2.37;;
11004;SDS011;5555;59.622;16.556;2024-02-23T10:03:56;2.50;;;2.23;;
11004;SDS011;5555;59.622;16.556;2024-02-23T10:06:23;3.27;;;2.10;;
11004;SDS011;5555;59.622;16.556;2024-02-23T10:08:55;2.43;;;2.07;;
11004;SDS011;5555;59.622;16.556;2024-02-23T10:11:21;1.90;;;1.57;;
11004;SDS011;5555;59.622;16.556;2024-02-23T10:13:47;1.83;;;1.50;;
11004;SDS011;5555;59.622;16.556;2024-02-23T10:16:15;2.23;;;1.93;;
11004;SDS011;5555;59.622;16.556;2024-02-23T10:18:41;2.00;;;1.53;;
11004;SDS011;5555;59.622;16.556;2024-02-23T10:21:06;2.37;;;1.40;;
11004;SDS011;5555;59.622;16.556;2024-02-23T10:23:32;2.30;;;1.33;;
11004;SDS011;5555;59.622;16.556;2024-02-23T10:25:58;1.33;;;1.10;;
11004;SDS011;5555;59.622;16.556;2024-02-23T10:28:24;1.37;;;0.80;;
11004;SDS011;5555;59.622;16.556;2024-02-23T10:30:49;1.10;;;0.70;;
11004;SDS011;5555;59.622;16.556;2024-02-23T10:33:15;1.43;;;0.50;;
11004;SDS011;5555;59.622;16.556;2024-02-23T10:35:43;1.80;;;0.50;;
11004;SDS011;5555;59.622;16.556;2024-02-23T10:38:11;0.93;;;0.53;;
11004;SDS011;5555;59.622;16.556;2024-02-23T10:40:41;2.73;;;0.70;;
11004;SDS011;5555;59.622;16.556;2024-02-23T10:43:12;2.67;;;0.60;;
11004;SDS011;5555;59.622;16.556;2024-02-23T10:45:41;1.20;;;0.43;;
11004;SDS011;5555;59.622;16.556;2024-02-23T10:48:08;1.53;;;0.37;;
11004;SDS011;5555;59.622;16.556;2024-02-23T10:50:35;1.73;;;0.40;;
11004;SDS011;5555;59.622;16.556;2024-02-23T10:53:02;1.17;;;0.47;;
11004;SDS011;5555;59.622;16.556;2024-02-23T10:55:32;1.07;;;0.60;;
11004;SDS011;5555;59.622;16.556;2024-02-23T10:57:58;2.87;;;0.43;;
11004;SDS011;5555;59.622;16.556;2024-02-23T11:00:25;1.43;;;0.50;;
11004;SDS011;5555;59.622;16.556;2024-02-23T11:02:51;2.07;;;0.50;;
11004;SDS011;5555;59.622;16.556;2024-02-23T11:05:19;2.03;;;0.53;;
11004;SDS011;5555;59.622;16.556;2024-02-23T11:07:46;3.40;;;0.40;;
11004;SDS011;5555;59.622;16.556;2024-02-23T11:10:15;0.90;;;0.43;;
11004;SDS011;5555;59.622;16.556;2024-02-23T11:12:41;2.80;;;0.53;;
11004;SDS011;5555;59.622;16.556;2024-02-23T11:15:08;1.80;;;0.50;;
11004;SDS011;5555;59.622;16.556;2024-02-23T11:17:35;2.30;;;0.60;;
11004;SDS011;5555;59.622;16.556;2024-02-23T11:20:03;1.53;;;0.40;;
11004;SDS011;5555;59.622;16.556;2024-02-23T11:22:30;2.60;;;0.60;;
11004;SDS011;5555;59.622;16.556;2024-02-23T11:25:00;2.77;;;0.70;;
11004;SDS011;5555;59.622;16.556;2024-02-23T11:27:32;3.60;;;0.63;;
11004;SDS011;5555;59.622;16.556;2024-02-23T11:30:04;1.60;;;0.53;;
11004;SDS011;5555;59.622;16.556;2024-02-23T11:32:41;3.27;;;0.70;;
11004;SDS011;5555;59.622;16.556;2024-02-23T11:35:16;1.27;;;0.50;;
11004;SDS011;5555;59.622;16.556;2024-02-23T11:37:53;2.60;;;0.80;;
11004;SDS011;5555;59.622;16.556;2024-02-23T11:40:23;1.70;;;0.57;;
11004;SDS011;5555;59.622;16.556;2024-02-23T11:42:50;1.57;;;0.57;;
11004;SDS011;5555;59.622;16.556;2024-02-23T11:45:16;3.70;;;0.53;;
11004;SDS011;5555;59.622;16.556;2024-02-23T11:47:42;2.10;;;0.70;;
11004;SDS011;5555;59.622;16.556;2024-02-23T11:50:08;2.70;;;1.00;;
11004;SDS011;5555;59.622;16.556;2024-02-23T11:52:34;2.23;;;0.60;;
11004;SDS011;5555;59.622;16.556;2024-02-23T11:55:02;3.97;;;0.80;;
11004;SDS011;5555;59.622;16.556;2024-02-23T11:57:30;3.20;;;1.00;;
11004;SDS011;5555;59.622;16.556;2024-02-23T11:59:57;3.50;;;0.80;;
11004;SDS011;5555;59.622;16.556;2024-02-23T12:02:23;3.00;;;0.93;;
11004;SDS011;5555;59.622;16.556;2024-02-23T12:04:49;3.37;;;0.83;;
11004;SDS011;5555;59.622;16.556;2024-02-23T12:07:15;2.60;;;0.70;;
11004;SDS011;5555;59.622;16.556;2024-02-23T12:09:41;2.80;;;0.90;;
11004;SDS011;5555;59.622;16.556;2024-02-23T12:12:07;3.43;;;0.90;;
11004;SDS011;5555;59.622;16.556;2024-02-23T12:14:37;5.43;;;1.53;;
11004;SDS011;5555;59.622;16.556;2024-02-23T12:17:03;4.80;;;1.20;;
11004;SDS011;5555;59.622;16.556;2024-02-23T12:19:31;3.13;;;0.90;;
11004;SDS011;5555;59.622;16.556;2024-02-23T12:22:02;4.43;;;1.07;;
11004;SDS011;5555;59.622;16.556;2024-02-23T12:24:29;6.47;;;1.17;;
11004;SDS011;5555;59.622;16.556;2024-02-23T12:26:55;5.33;;;0.90;;
11004;SDS011;5555;59.622;16.556;2024-02-23T12:29:21;3.27;;;0.80;;
11004;SDS011;5555;59.622;16.556;2024-02-23T12:31:47;8.47;;;1.00;;
11004;SDS011;5555;59.622;16.556;2024-02-23T12:34:13;4.57;;;1.07;;
11004;SDS011;5555;59.622;16.556;2024-02-23T12:36:39;3.80;;;1.30;;
11004;SDS011;5555;59.622;16.556;2024-02-23T12:39:05;6.60;;;1.20;;
11004;SDS011;5555;59.622;16.556;2024-02-23T12:41:31;5.17;;;1.70;;
11004;SDS011;5555;59.622;16.556;2024-02-23T12:43:57;6.30;;;1.30;;
11004;SDS011;5555;59.622;16.556;2024-02-23T12:46:23;5.03;;;1.87;;
11004;SDS011;5555;59.622;16.556;2024-02-23T12:48:49;3.20;;;0.80;;
11004;SDS011;5555;59.622;16.556;2024-02-23T12:51:15;4.40;;;1.13;;
11004;SDS011;5555;59.622;16.556;2024-02-23T12:53:41;4.73;;;1.23;;
11004;SDS011;5555;59.622;16.556;2024-02-23T12:56:11;6.93;;;1.60;;
11004;SDS011;5555;59.622;16.556;2024-02-23T12:58:41;2.97;;;0.83;;
11004;SDS011;5555;59.622;16.556;2024-02-23T13:01:09;3.27;;;1.13;;
11004;SDS011;5555;59.622;16.556;2024-02-23T13:03:35;4.97;;;1.40;;
11004;SDS011;5555;59.622;16.556;2024-02-23T13:06:03;3.87;;;1.17;;
11004;SDS011;5555;59.622;16.556;2024-02-23T13:08:29;4.27;;;1.27;;
11004;SDS011;5555;59.622;16.556;2024-02-23T13:10:56;4.77;;;1.23;;
11004;SDS011;5555;59.622;16.556;2024-02-23T13:13:22;4.13;;;1.27;;
11004;SDS011;5555;59.622;16.556;2024-02-23T13:15:49;3.40;;;1.27;;
11004;SDS011;5555;59.622;16.556;2024-02-23T13:18:15;3.87;;;1.00;;
11004;SDS011;5555;59.622;16.556;2024-02-23T13:20:41;5.03;;;1.17;;
11004;SDS011;5555;59.622;16.556;2024-02-23T13:23:08;7.03;;;1.53;;
11004;SDS011;5555;59.622;16.556;2024-02-23T13:25:37;7.07;;;1.33;;
11004;SDS011;5555;59.622;16.556;2024-02-23T13:28:05;3.73;;;1.00;;
11004;SDS011;5555;59.622;16.556;2024-02-23T13:30:31;3.80;;;1.30;;
11004;SDS011;5555;59.622;16.556;2024-02-23T13:32:57;5.07;;;1.27;;
11004;SDS011;5555;59.622;16.556;2024-02-23T13:35:23;5.30;;;1.10;;
11004;SDS011;5555;59.622;16.556;2024-02-23T13:37:49;5.00;;;1.17;;
11004;SDS011;5555;59.622;16.556;2024-02-23T13:40:15;4.43;;;1.20;;
11004;SDS011;5555;59.622;16.556;2024-02-23T13:42:41;3.37;;;1.00;;
11004;SDS011;5555;59.622;16.556;2024-02-23T13:45:07;5.37;;;1.10;;
11004;SDS011;5555;59.622;16.556;2024-02-23T13:47:34;6.20;;;1.20;;
11004;SDS011;5555;59.622;16.556;2024-02-23T13:50:03;5.43;;;1.20;;
11004;SDS011;5555;59.622;16.556;2024-02-23T13:52:30;3.63;;;1.10;;
11004;SDS011;5555;59.622;16.556;2024-02-23T13:54:56;4.63;;;1.23;;
11004;SDS011;5555;59.622;16.556;2024-02-23T13:57:22;5.20;;;1.17;;
11004;SDS011;5555;59.622;16.556;2024-02-23T13:59:48;4.57;;;1.23;;
11004;SDS011;5555;59.622;16.556;2024-02-23T14:02:13;7.53;;;1.43;;
11004;SDS011;5555;59.622;16.556;2024-02-23T14:04:39;3.13;;;0.83;;
11004;SDS011;5555;59.622;16.556;2024-02-23T14:07:06;4.73;;;1.40;;
11004;SDS011;5555;59.622;16.556;2024-02-23T14:09:32;3.63;;;1.10;;
11004;SDS011;5555;59.622;16.556;2024-02-23T14:11:58;2.30;;;0.90;;
11004;SDS011;5555;59.622;16.556;2024-02-23T14:14:24;5.60;;;1.10;;
11004;SDS011;5555;59.622;16.556;2024-02-23T14:16:50;3.63;;;1.00;;
11004;SDS011;5555;59.622;16.556;2024-02-23T14:19:16;4.80;;;1.37;;
11004;SDS011;5555;59.622;16.556;2024-02-23T14:21:41;7.00;;;1.20;;
11004;SDS011;5555;59.622;16.556;2024-02-23T14:24:07;5.07;;;1.00;;
11004;SDS011;5555;59.622;16.556;2024-02-23T14:26:33;3.53;;;1.10;;
11004;SDS011;5555;59.622;16.556;2024-02-23T14:28:59;4.03;;;1.20;;
11004;SDS011;5555;59.622;16.556;2024-02-23T14:31:25;4.30;;;1.40;;